sensor_id;sensor_type;location;lat;lon;timestamp;temperature;humidity
30534;DHT22;73248;52.398;9.814;2023-10-13T00:01:37;16.40;99.90
30534;DHT22;73248;52.398;9.814;2023-10-13T00:04:03;16.40;99.90
30534;DHT22;73248;52.398;9.814;2023-10-13T00:06:30;16.40;99.90
30534;DHT22;73248;52.398;9.814;2023-10-13T00:08:56;16.50;99.90
30534;DHT22;73248;52.398;9.814;2023-10-13T00:11:25;16.50;99.90
30534;DHT22;73248;52.398;9.814;2023-10-13T00:13:52;16.50;99.90
30534;DHT22;73248;52.398;9.814;2023-10-13T00:16:20;16.60;99.90
30534;DHT22;73248;52.398;9.814;2023-10-13T00:18:54;16.60;99.90
30534;DHT22;73248;52.398;9.814;2023-10-13T00:21:23;16.60;99.90
30534;DHT22;73248;52.398;9.814;2023-10-13T00:24:00;16.60;99.90
30534;DHT22;73248;52.398;9.814;2023-10-13T00:26:31;16.60;99.90
30534;DHT22;73248;52.398;9.814;2023-10-13T00:29:00;16.60;99.90
30534;DHT22;73248;52.398;9.814;2023-10-13T00:31:47;16.70;99.90
30534;DHT22;73248;52.398;9.814;2023-10-13T00:34:13;16.70;99.90
30534;DHT22;73248;52.398;9.814;2023-10-13T00:37:08;16.70;99.90
30534;DHT22;73248;52.398;9.814;2023-10-13T00:39:55;16.70;99.90
30534;DHT22;73248;52.398;9.814;2023-10-13T00:42:22;16.70;99.90
30534;DHT22;73248;52.398;9.814;2023-10-13T00:44:59;16.70;99.90
30534;DHT22;73248;52.398;9.814;2023-10-13T00:47:26;16.70;99.90
30534;DHT22;73248;52.398;9.814;2023-10-13T00:50:18;16.70;99.90
30534;DHT22;73248;52.398;9.814;2023-10-13T00:52:44;16.80;99.90
30534;DHT22;73248;52.398;9.814;2023-10-13T00:55:13;16.80;99.90
30534;DHT22;73248;52.398;9.814;2023-10-13T00:57:40;16.70;99.90
30534;DHT22;73248;52.398;9.814;2023-10-13T01:00:07;16.80;99.90
30534;DHT22;73248;52.398;9.814;2023-10-13T01:02:52;16.80;99.90
30534;DHT22;73248;52.398;9.814;2023-10-13T01:05:32;16.80;99.90
30534;DHT22;73248;52.398;9.814;2023-10-13T01:08:03;16.80;99.90
30534;DHT22;73248;52.398;9.814;2023-10-13T01:10:30;16.80;99.90
30534;DHT22;73248;52.398;9.814;2023-10-13T01:12:58;16.80;99.90
30534;DHT22;73248;52.398;9.814;2023-10-13T01:15:32;16.90;99.90
30534;DHT22;73248;52.398;9.814;2023-10-13T01:18:07;16.80;99.90
30534;DHT22;73248;52.398;9.814;2023-10-13T01:20:42;16.80;99.90
30534;DHT22;73248;52.398;9.814;2023-10-13T01:23:14;16.90;99.90
30534;DHT22;73248;52.398;9.814;2023-10-13T01:25:44;16.90;99.90
30534;DHT22;73248;52.398;9.814;2023-10-13T01:28:13;16.90;99.90
30534;DHT22;73248;52.398;9.814;2023-10-13T01:30:44;17.00;99.90
30534;DHT22;73248;52.398;9.814;2023-10-13T01:33:15;16.90;99.90
30534;DHT22;73248;52.398;9.814;2023-10-13T01:35:41;16.90;99.90
30534;DHT22;73248;52.398;9.814;2023-10-13T01:38:15;17.00;99.90
30534;DHT22;73248;52.398;9.814;2023-10-13T01:40:43;17.00;99.90
30534;DHT22;73248;52.398;9.814;2023-10-13T01:43:09;17.00;99.90
30534;DHT22;73248;52.398;9.814;2023-10-13T01:45:37;16.90;99.90
30534;DHT22;73248;52.398;9.814;2023-10-13T01:48:17;17.00;99.90
30534;DHT22;73248;52.398;9.814;2023-10-13T01:50:46;17.00;99.90
30534;DHT22;73248;52.398;9.814;2023-10-13T01:53:21;16.90;99.90
30534;DHT22;73248;52.398;9.814;2023-10-13T01:55:49;17.00;99.90
30534;DHT22;73248;52.398;9.814;2023-10-13T01:58:15;16.90;99.90
30534;DHT22;73248;52.398;9.814;2023-10-13T02:00:42;17.00;99.90
30534;DHT22;73248;52.398;9.814;2023-10-13T02:03:09;16.90;99.90
30534;DHT22;73248;52.398;9.814;2023-10-13T02:05:45;17.00;99.90
30534;DHT22;73248;52.398;9.814;2023-10-13T02:08:18;16.90;99.90
30534;DHT22;73248;52.398;9.814;2023-10-13T02:10:51;17.00;99.90
30534;DHT22;73248;52.398;9.814;2023-10-13T02:13:17;16.90;99.90
30534;DHT22;73248;52.398;9.814;2023-10-13T02:15:47;16.90;99.90
30534;DHT22;73248;52.398;9.814;2023-10-13T02:18:15;16.90;99.90
30534;DHT22;73248;52.398;9.814;2023-10-13T02:20:55;16.90;99.90
30534;DHT22;73248;52.398;9.814;2023-10-13T02:23:25;16.90;99.90
30534;DHT22;73248;52.398;9.814;2023-10-13T02:25:54;16.90;99.90
30534;DHT22;73248;52.398;9.814;2023-10-13T02:28:28;16.90;99.90
30534;DHT22;73248;52.398;9.814;2023-10-13T02:31:02;16.90;99.90
30534;DHT22;73248;52.398;9.814;2023-10-13T02:33:29;16.90;99.90
30534;DHT22;73248;52.398;9.814;2023-10-13T02:36:02;17.00;99.90
30534;DHT22;73248;52.398;9.814;2023-10-13T02:38:34;16.90;99.90
30534;DHT22;73248;52.398;9.814;2023-10-13T02:41:18;16.90;99.90
30534;DHT22;73248;52.398;9.814;2023-10-13T02:43:55;16.90;99.90
30534;DHT22;73248;52.398;9.814;2023-10-13T02:46:22;16.90;99.90
30534;DHT22;73248;52.398;9.814;2023-10-13T02:48:48;16.90;99.90
30534;DHT22;73248;52.398;9.814;2023-10-13T02:51:19;16.90;99.90
30534;DHT22;73248;52.398;9.814;2023-10-13T02:53:50;16.90;99.90
30534;DHT22;73248;52.398;9.814;2023-10-13T02:56:18;16.90;99.90
30534;DHT22;73248;52.398;9.814;2023-10-13T02:58:50;16.90;99.90
30534;DHT22;73248;52.398;9.814;2023-10-13T03:01:20;17.00;99.90
30534;DHT22;73248;52.398;9.814;2023-10-13T03:03:48;16.90;99.90
30534;DHT22;73248;52.398;9.814;2023-10-13T03:06:20;17.00;99.90
30534;DHT22;73248;52.398;9.814;2023-10-13T03:08:59;17.00;99.90
30534;DHT22;73248;52.398;9.814;2023-10-13T03:11:46;17.00;99.90
30534;DHT22;73248;52.398;9.814;2023-10-13T03:14:15;17.00;99.90
30534;DHT22;73248;52.398;9.814;2023-10-13T03:16:56;16.90;99.90
30534;DHT22;73248;52.398;9.814;2023-10-13T03:19:28;17.00;99.90
30534;DHT22;73248;52.398;9.814;2023-10-13T03:22:07;16.90;99.90
30534;DHT22;73248;52.398;9.814;2023-10-13T03:24:35;17.00;99.90
30534;DHT22;73248;52.398;9.814;2023-10-13T03:27:02;17.00;99.90
30534;DHT22;73248;52.398;9.814;2023-10-13T03:29:35;17.00;99.90
30534;DHT22;73248;52.398;9.814;2023-10-13T03:32:01;17.00;99.90
30534;DHT22;73248;52.398;9.814;2023-10-13T03:34:37;17.00;99.90
30534;DHT22;73248;52.398;9.814;2023-10-13T03:37:11;17.00;99.90
30534;DHT22;73248;52.398;9.814;2023-10-13T03:39:43;17.00;99.90
30534;DHT22;73248;52.398;9.814;2023-10-13T03:42:11;17.00;99.90
30534;DHT22;73248;52.398;9.814;2023-10-13T03:44:45;17.00;99.90
30534;DHT22;73248;52.398;9.814;2023-10-13T03:47:12;17.00;99.90
30534;DHT22;73248;52.398;9.814;2023-10-13T03:49:46;17.00;99.90
30534;DHT22;73248;52.398;9.814;2023-10-13T03:52:16;17.00;99.90
30534;DHT22;73248;52.398;9.814;2023-10-13T03:54:47;17.00;99.90
30534;DHT22;73248;52.398;9.814;2023-10-13T03:57:16;17.00;99.90
30534;DHT22;73248;52.398;9.814;2023-10-13T03:59:42;17.10;99.90
30534;DHT22;73248;52.398;9.814;2023-10-13T04:02:12;17.10;99.90
30534;DHT22;73248;52.398;9.814;2023-10-13T04:04:43;17.10;99.90
30534;DHT22;73248;52.398;9.814;2023-10-13T04:07:18;17.20;99.90
30534;DHT22;73248;52.398;9.814;2023-10-13T04:10:05;17.10;99.90
30534;DHT22;73248;52.398;9.814;2023-10-13T04:12:50;17.10;99.90
30534;DHT22;73248;52.398;9.814;2023-10-13T04:15:34;17.10;99.90
30534;DHT22;73248;52.398;9.814;2023-10-13T04:18:06;17.10;99.90
30534;DHT22;73248;52.398;9.814;2023-10-13T04:20:44;17.10;99.90
30534;DHT22;73248;52.398;9.814;2023-10-13T04:23:12;17.10;99.90
30534;DHT22;73248;52.398;9.814;2023-10-13T04:25:43;17.10;99.90
30534;DHT22;73248;52.398;9.814;2023-10-13T04:28:15;17.10;99.90
30534;DHT22;73248;52.398;9.814;2023-10-13T04:31:02;17.10;99.90
30534;DHT22;73248;52.398;9.814;2023-10-13T04:33:59;17.00;99.90
30534;DHT22;73248;52.398;9.814;2023-10-13T04:36:30;17.00;99.90
30534;DHT22;73248;52.398;9.814;2023-10-13T04:38:56;17.00;99.90
30534;DHT22;73248;52.398;9.814;2023-10-13T04:43:58;17.00;99.90
30534;DHT22;73248;52.398;9.814;2023-10-13T04:46:31;17.00;99.90
30534;DHT22;73248;52.398;9.814;2023-10-13T04:49:23;17.00;99.90
30534;DHT22;73248;52.398;9.814;2023-10-13T04:51:59;17.00;99.90
30534;DHT22;73248;52.398;9.814;2023-10-13T04:54:26;17.00;99.90
30534;DHT22;73248;52.398;9.814;2023-10-13T04:56:59;17.00;99.90
30534;DHT22;73248;52.398;9.814;2023-10-13T04:59:45;17.00;99.90
30534;DHT22;73248;52.398;9.814;2023-10-13T05:02:33;17.10;99.90
30534;DHT22;73248;52.398;9.814;2023-10-13T05:05:10;17.10;99.90
30534;DHT22;73248;52.398;9.814;2023-10-13T05:07:48;17.10;99.90
30534;DHT22;73248;52.398;9.814;2023-10-13T05:10:34;17.10;99.90
30534;DHT22;73248;52.398;9.814;2023-10-13T05:13:20;17.00;99.90
30534;DHT22;73248;52.398;9.814;2023-10-13T05:16:04;17.00;99.90
30534;DHT22;73248;52.398;9.814;2023-10-13T05:18:49;17.10;99.90
30534;DHT22;73248;52.398;9.814;2023-10-13T05:21:33;17.10;99.90
30534;DHT22;73248;52.398;9.814;2023-10-13T05:24:17;17.10;99.90
30534;DHT22;73248;52.398;9.814;2023-10-13T05:27:01;17.00;99.90
30534;DHT22;73248;52.398;9.814;2023-10-13T05:30:02;17.10;99.90
30534;DHT22;73248;52.398;9.814;2023-10-13T05:32:49;17.00;99.90
30534;DHT22;73248;52.398;9.814;2023-10-13T05:35:36;17.10;99.90
30534;DHT22;73248;52.398;9.814;2023-10-13T05:38:22;17.10;99.90
30534;DHT22;73248;52.398;9.814;2023-10-13T05:41:06;17.10;99.90
30534;DHT22;73248;52.398;9.814;2023-10-13T05:43:51;17.20;99.90
30534;DHT22;73248;52.398;9.814;2023-10-13T05:46:35;17.10;99.90
30534;DHT22;73248;52.398;9.814;2023-10-13T05:49:05;17.10;99.90
30534;DHT22;73248;52.398;9.814;2023-10-13T05:51:46;17.00;99.90
30534;DHT22;73248;52.398;9.814;2023-10-13T05:54:18;17.00;99.90
30534;DHT22;73248;52.398;9.814;2023-10-13T05:56:48;17.10;99.90
30534;DHT22;73248;52.398;9.814;2023-10-13T05:59:34;17.10;99.90
30534;DHT22;73248;52.398;9.814;2023-10-13T06:02:19;17.10;99.90
30534;DHT22;73248;52.398;9.814;2023-10-13T06:05:04;17.00;99.90
30534;DHT22;73248;52.398;9.814;2023-10-13T06:07:49;17.00;99.90
30534;DHT22;73248;52.398;9.814;2023-10-13T06:10:36;17.00;99.90
30534;DHT22;73248;52.398;9.814;2023-10-13T06:13:21;17.00;99.90
30534;DHT22;73248;52.398;9.814;2023-10-13T06:16:13;17.00;99.90
30534;DHT22;73248;52.398;9.814;2023-10-13T06:18:57;17.10;99.90
30534;DHT22;73248;52.398;9.814;2023-10-13T06:21:42;17.10;99.90
30534;DHT22;73248;52.398;9.814;2023-10-13T06:24:28;17.00;99.90
30534;DHT22;73248;52.398;9.814;2023-10-13T06:27:12;17.10;99.90
30534;DHT22;73248;52.398;9.814;2023-10-13T06:29:57;17.10;99.90
30534;DHT22;73248;52.398;9.814;2023-10-13T06:32:23;17.10;99.90
30534;DHT22;73248;52.398;9.814;2023-10-13T06:34:59;17.10;99.90
30534;DHT22;73248;52.398;9.814;2023-10-13T06:37:31;17.10;99.90
30534;DHT22;73248;52.398;9.814;2023-10-13T06:40:00;17.10;99.90
30534;DHT22;73248;52.398;9.814;2023-10-13T06:42:33;17.00;99.90
30534;DHT22;73248;52.398;9.814;2023-10-13T06:45:08;17.00;99.90
30534;DHT22;73248;52.398;9.814;2023-10-13T06:47:35;17.10;99.90
30534;DHT22;73248;52.398;9.814;2023-10-13T06:50:07;17.10;99.90
30534;DHT22;73248;52.398;9.814;2023-10-13T06:52:44;17.10;99.90
30534;DHT22;73248;52.398;9.814;2023-10-13T06:55:10;17.10;99.90
30534;DHT22;73248;52.398;9.814;2023-10-13T06:58:00;17.10;99.90
30534;DHT22;73248;52.398;9.814;2023-10-13T07:00:27;17.20;99.90
30534;DHT22;73248;52.398;9.814;2023-10-13T07:02:59;17.20;99.90
30534;DHT22;73248;52.398;9.814;2023-10-13T07:05:39;17.20;99.90
30534;DHT22;73248;52.398;9.814;2023-10-13T07:08:07;17.20;99.90
30534;DHT22;73248;52.398;9.814;2023-10-13T07:10:34;17.20;99.90
30534;DHT22;73248;52.398;9.814;2023-10-13T07:13:19;17.20;99.90
30534;DHT22;73248;52.398;9.814;2023-10-13T07:15:48;17.20;99.90
30534;DHT22;73248;52.398;9.814;2023-10-13T07:18:16;17.20;99.90
30534;DHT22;73248;52.398;9.814;2023-10-13T07:20:50;17.20;99.90
30534;DHT22;73248;52.398;9.814;2023-10-13T07:23:23;17.20;99.90
30534;DHT22;73248;52.398;9.814;2023-10-13T07:25:52;17.30;99.90
30534;DHT22;73248;52.398;9.814;2023-10-13T07:28:21;17.30;99.90
30534;DHT22;73248;52.398;9.814;2023-10-13T07:30:47;17.20;99.90
30534;DHT22;73248;52.398;9.814;2023-10-13T07:33:18;17.30;99.90
30534;DHT22;73248;52.398;9.814;2023-10-13T07:36:00;17.30;99.90
30534;DHT22;73248;52.398;9.814;2023-10-13T07:38:26;17.30;99.90
30534;DHT22;73248;52.398;9.814;2023-10-13T07:40:56;17.30;99.90
30534;DHT22;73248;52.398;9.814;2023-10-13T07:43:32;17.20;99.90
30534;DHT22;73248;52.398;9.814;2023-10-13T07:45:58;17.20;99.90
30534;DHT22;73248;52.398;9.814;2023-10-13T07:48:27;17.30;99.90
30534;DHT22;73248;52.398;9.814;2023-10-13T07:51:08;17.30;99.90
30534;DHT22;73248;52.398;9.814;2023-10-13T07:53:39;17.30;99.90
30534;DHT22;73248;52.398;9.814;2023-10-13T07:56:06;17.30;99.90
30534;DHT22;73248;52.398;9.814;2023-10-13T07:58:37;17.40;99.90
30534;DHT22;73248;52.398;9.814;2023-10-13T08:01:13;17.30;99.90
30534;DHT22;73248;52.398;9.814;2023-10-13T08:03:45;17.30;99.90
30534;DHT22;73248;52.398;9.814;2023-10-13T08:06:19;17.40;99.90
30534;DHT22;73248;52.398;9.814;2023-10-13T08:08:46;17.40;99.90
30534;DHT22;73248;52.398;9.814;2023-10-13T08:11:18;17.40;99.90
30534;DHT22;73248;52.398;9.814;2023-10-13T08:13:58;17.40;99.90
30534;DHT22;73248;52.398;9.814;2023-10-13T08:16:53;17.40;99.90
30534;DHT22;73248;52.398;9.814;2023-10-13T08:19:24;17.50;99.90
30534;DHT22;73248;52.398;9.814;2023-10-13T08:21:56;17.60;99.90
30534;DHT22;73248;52.398;9.814;2023-10-13T08:24:28;17.60;99.90
30534;DHT22;73248;52.398;9.814;2023-10-13T08:27:15;17.70;99.90
30534;DHT22;73248;52.398;9.814;2023-10-13T08:29:41;17.60;99.90
30534;DHT22;73248;52.398;9.814;2023-10-13T08:32:26;17.70;99.90
30534;DHT22;73248;52.398;9.814;2023-10-13T08:34:55;17.70;99.90
30534;DHT22;73248;52.398;9.814;2023-10-13T08:37:22;17.80;99.90
30534;DHT22;73248;52.398;9.814;2023-10-13T08:39:48;17.90;99.90
30534;DHT22;73248;52.398;9.814;2023-10-13T08:42:33;17.90;99.90
30534;DHT22;73248;52.398;9.814;2023-10-13T08:45:17;17.90;99.90
30534;DHT22;73248;52.398;9.814;2023-10-13T08:47:53;18.00;99.90
30534;DHT22;73248;52.398;9.814;2023-10-13T08:53:28;18.00;99.90
30534;DHT22;73248;52.398;9.814;2023-10-13T08:56:00;18.10;99.90
30534;DHT22;73248;52.398;9.814;2023-10-13T08:58:34;18.20;99.90
30534;DHT22;73248;52.398;9.814;2023-10-13T09:01:29;18.20;99.90
30534;DHT22;73248;52.398;9.814;2023-10-13T09:04:18;18.20;99.90
30534;DHT22;73248;52.398;9.814;2023-10-13T09:06:56;18.30;99.90
30534;DHT22;73248;52.398;9.814;2023-10-13T09:09:44;18.30;99.90
30534;DHT22;73248;52.398;9.814;2023-10-13T09:14:55;18.40;99.90
30534;DHT22;73248;52.398;9.814;2023-10-13T09:17:27;18.40;99.90
30534;DHT22;73248;52.398;9.814;2023-10-13T09:20:02;18.40;99.90
30534;DHT22;73248;52.398;9.814;2023-10-13T09:22:51;18.40;99.90
30534;DHT22;73248;52.398;9.814;2023-10-13T09:25:34;18.40;99.90
30534;DHT22;73248;52.398;9.814;2023-10-13T09:28:14;18.50;99.90
30534;DHT22;73248;52.398;9.814;2023-10-13T09:30:51;18.50;99.90
30534;DHT22;73248;52.398;9.814;2023-10-13T09:33:27;18.50;99.90
30534;DHT22;73248;52.398;9.814;2023-10-13T09:35:59;18.60;99.90
30534;DHT22;73248;52.398;9.814;2023-10-13T09:38:28;18.60;99.90
30534;DHT22;73248;52.398;9.814;2023-10-13T09:40:54;18.60;99.90
30534;DHT22;73248;52.398;9.814;2023-10-13T09:43:23;18.70;99.90
30534;DHT22;73248;52.398;9.814;2023-10-13T09:45:59;18.70;99.90
30534;DHT22;73248;52.398;9.814;2023-10-13T09:48:37;18.70;99.90
30534;DHT22;73248;52.398;9.814;2023-10-13T09:51:12;18.80;99.90
30534;DHT22;73248;52.398;9.814;2023-10-13T09:53:38;18.80;99.90
30534;DHT22;73248;52.398;9.814;2023-10-13T09:56:18;18.90;99.90
30534;DHT22;73248;52.398;9.814;2023-10-13T09:58:55;18.90;99.90
30534;DHT22;73248;52.398;9.814;2023-10-13T10:01:28;18.90;99.90
30534;DHT22;73248;52.398;9.814;2023-10-13T10:04:09;19.00;99.90
30534;DHT22;73248;52.398;9.814;2023-10-13T10:06:39;19.00;99.90
30534;DHT22;73248;52.398;9.814;2023-10-13T10:09:09;19.10;99.90
30534;DHT22;73248;52.398;9.814;2023-10-13T10:17:22;19.40;99.90
30534;DHT22;73248;52.398;9.814;2023-10-13T10:19:54;19.40;99.90
30534;DHT22;73248;52.398;9.814;2023-10-13T10:22:33;19.40;99.90
30534;DHT22;73248;52.398;9.814;2023-10-13T10:25:02;19.50;99.90
30534;DHT22;73248;52.398;9.814;2023-10-13T10:27:32;19.70;99.90
30534;DHT22;73248;52.398;9.814;2023-10-13T10:29:59;19.80;99.90
30534;DHT22;73248;52.398;9.814;2023-10-13T10:32:36;19.80;99.90
30534;DHT22;73248;52.398;9.814;2023-10-13T10:35:09;19.80;99.90
30534;DHT22;73248;52.398;9.814;2023-10-13T10:37:40;19.90;99.90
30534;DHT22;73248;52.398;9.814;2023-10-13T10:40:16;20.00;99.90
30534;DHT22;73248;52.398;9.814;2023-10-13T10:43:11;20.00;99.90
30534;DHT22;73248;52.398;9.814;2023-10-13T10:45:48;20.10;99.90
30534;DHT22;73248;52.398;9.814;2023-10-13T10:48:20;20.20;99.90
30534;DHT22;73248;52.398;9.814;2023-10-13T10:50:54;20.20;99.90
30534;DHT22;73248;52.398;9.814;2023-10-13T10:53:21;20.30;99.90
30534;DHT22;73248;52.398;9.814;2023-10-13T10:56:05;20.40;99.90
30534;DHT22;73248;52.398;9.814;2023-10-13T10:58:34;20.50;99.90
30534;DHT22;73248;52.398;9.814;2023-10-13T11:01:11;20.60;99.90
30534;DHT22;73248;52.398;9.814;2023-10-13T11:03:55;20.60;99.90
30534;DHT22;73248;52.398;9.814;2023-10-13T11:06:26;20.60;99.90
30534;DHT22;73248;52.398;9.814;2023-10-13T11:09:05;20.60;99.90
30534;DHT22;73248;52.398;9.814;2023-10-13T11:14:42;20.70;99.90
30534;DHT22;73248;52.398;9.814;2023-10-13T11:17:08;20.90;99.90
30534;DHT22;73248;52.398;9.814;2023-10-13T11:19:51;20.90;99.90
30534;DHT22;73248;52.398;9.814;2023-10-13T11:22:21;21.00;99.90
30534;DHT22;73248;52.398;9.814;2023-10-13T11:25:06;21.10;99.90
30534;DHT22;73248;52.398;9.814;2023-10-13T11:27:42;21.40;99.90
30534;DHT22;73248;52.398;9.814;2023-10-13T11:30:11;21.60;99.90
30534;DHT22;73248;52.398;9.814;2023-10-13T11:32:42;21.80;99.90
30534;DHT22;73248;52.398;9.814;2023-10-13T11:35:10;21.80;99.90
30534;DHT22;73248;52.398;9.814;2023-10-13T11:37:46;21.90;99.90
30534;DHT22;73248;52.398;9.814;2023-10-13T11:40:21;22.00;99.90
30534;DHT22;73248;52.398;9.814;2023-10-13T11:43:06;22.00;99.90
30534;DHT22;73248;52.398;9.814;2023-10-13T11:45:41;22.10;99.90
30534;DHT22;73248;52.398;9.814;2023-10-13T11:48:40;22.10;99.90
30534;DHT22;73248;52.398;9.814;2023-10-13T11:51:10;22.20;99.90
30534;DHT22;73248;52.398;9.814;2023-10-13T11:53:44;22.20;99.90
30534;DHT22;73248;52.398;9.814;2023-10-13T11:56:21;22.00;99.90
30534;DHT22;73248;52.398;9.814;2023-10-13T11:58:50;22.00;99.90
30534;DHT22;73248;52.398;9.814;2023-10-13T12:01:18;22.00;99.90
30534;DHT22;73248;52.398;9.814;2023-10-13T12:03:46;22.20;99.90
30534;DHT22;73248;52.398;9.814;2023-10-13T12:06:31;22.20;99.90
30534;DHT22;73248;52.398;9.814;2023-10-13T12:09:03;22.10;99.90
30534;DHT22;73248;52.398;9.814;2023-10-13T12:11:48;22.30;99.90
30534;DHT22;73248;52.398;9.814;2023-10-13T12:14:16;22.50;99.90
30534;DHT22;73248;52.398;9.814;2023-10-13T12:16:43;22.60;99.90
30534;DHT22;73248;52.398;9.814;2023-10-13T12:19:20;22.60;99.90
30534;DHT22;73248;52.398;9.814;2023-10-13T12:21:49;22.50;99.90
30534;DHT22;73248;52.398;9.814;2023-10-13T12:24:17;22.30;99.90
30534;DHT22;73248;52.398;9.814;2023-10-13T12:27:02;22.20;99.90
30534;DHT22;73248;52.398;9.814;2023-10-13T12:29:28;22.10;99.90
30534;DHT22;73248;52.398;9.814;2023-10-13T12:31:57;22.10;99.90
30534;DHT22;73248;52.398;9.814;2023-10-13T12:34:38;22.00;99.90
30534;DHT22;73248;52.398;9.814;2023-10-13T12:37:28;21.90;99.90
30534;DHT22;73248;52.398;9.814;2023-10-13T12:40:12;22.00;99.90
30534;DHT22;73248;52.398;9.814;2023-10-13T12:42:57;22.00;99.90
30534;DHT22;73248;52.398;9.814;2023-10-13T12:45:42;21.80;99.90
30534;DHT22;73248;52.398;9.814;2023-10-13T12:48:29;21.80;99.90
30534;DHT22;73248;52.398;9.814;2023-10-13T12:51:14;21.90;99.90
30534;DHT22;73248;52.398;9.814;2023-10-13T12:53:50;21.80;99.90
30534;DHT22;73248;52.398;9.814;2023-10-13T12:56:17;21.80;99.90
30534;DHT22;73248;52.398;9.814;2023-10-13T12:58:46;21.80;99.90
30534;DHT22;73248;52.398;9.814;2023-10-13T13:01:26;21.90;99.90
30534;DHT22;73248;52.398;9.814;2023-10-13T13:03:58;21.80;99.90
30534;DHT22;73248;52.398;9.814;2023-10-13T13:06:26;21.80;99.90
30534;DHT22;73248;52.398;9.814;2023-10-13T13:08:52;21.80;99.90
30534;DHT22;73248;52.398;9.814;2023-10-13T13:11:18;21.80;99.90
30534;DHT22;73248;52.398;9.814;2023-10-13T13:13:46;21.80;99.90
30534;DHT22;73248;52.398;9.814;2023-10-13T13:16:12;21.80;99.90
30534;DHT22;73248;52.398;9.814;2023-10-13T13:18:38;21.80;99.90
30534;DHT22;73248;52.398;9.814;2023-10-13T13:21:04;21.90;99.90
30534;DHT22;73248;52.398;9.814;2023-10-13T13:23:32;22.00;99.90
30534;DHT22;73248;52.398;9.814;2023-10-13T13:26:00;22.00;99.90
30534;DHT22;73248;52.398;9.814;2023-10-13T13:28:34;22.10;99.90
30534;DHT22;73248;52.398;9.814;2023-10-13T13:31:03;22.10;99.90
30534;DHT22;73248;52.398;9.814;2023-10-13T13:33:33;22.10;99.90
30534;DHT22;73248;52.398;9.814;2023-10-13T13:36:07;22.20;99.90
30534;DHT22;73248;52.398;9.814;2023-10-13T13:38:39;22.20;99.90
30534;DHT22;73248;52.398;9.814;2023-10-13T13:41:14;22.10;99.90
30534;DHT22;73248;52.398;9.814;2023-10-13T13:43:51;22.10;99.90
30534;DHT22;73248;52.398;9.814;2023-10-13T13:46:26;22.20;99.90
30534;DHT22;73248;52.398;9.814;2023-10-13T13:49:01;22.10;99.90
30534;DHT22;73248;52.398;9.814;2023-10-13T13:51:27;22.10;99.90
30534;DHT22;73248;52.398;9.814;2023-10-13T13:54:00;22.10;99.90
30534;DHT22;73248;52.398;9.814;2023-10-13T13:56:26;22.10;99.90
30534;DHT22;73248;52.398;9.814;2023-10-13T13:58:53;22.10;99.90
30534;DHT22;73248;52.398;9.814;2023-10-13T14:01:20;22.10;99.90
30534;DHT22;73248;52.398;9.814;2023-10-13T14:03:52;22.10;99.90
30534;DHT22;73248;52.398;9.814;2023-10-13T14:06:24;22.10;99.90
30534;DHT22;73248;52.398;9.814;2023-10-13T14:08:51;22.20;99.90
30534;DHT22;73248;52.398;9.814;2023-10-13T14:11:20;22.40;99.90
30534;DHT22;73248;52.398;9.814;2023-10-13T14:14:22;22.60;99.90
30534;DHT22;73248;52.398;9.814;2023-10-13T14:16:51;22.60;99.90
30534;DHT22;73248;52.398;9.814;2023-10-13T14:19:19;22.60;99.90
30534;DHT22;73248;52.398;9.814;2023-10-13T14:21:52;22.70;99.90
30534;DHT22;73248;52.398;9.814;2023-10-13T14:24:21;22.70;99.90
30534;DHT22;73248;52.398;9.814;2023-10-13T14:26:57;22.70;99.90
30534;DHT22;73248;52.398;9.814;2023-10-13T14:29:45;22.70;99.90
30534;DHT22;73248;52.398;9.814;2023-10-13T14:32:13;22.80;99.90
30534;DHT22;73248;52.398;9.814;2023-10-13T14:34:45;22.80;99.90
30534;DHT22;73248;52.398;9.814;2023-10-13T14:37:14;22.70;99.90
30534;DHT22;73248;52.398;9.814;2023-10-13T14:39:52;22.80;99.90
30534;DHT22;73248;52.398;9.814;2023-10-13T14:42:25;22.90;99.90
30534;DHT22;73248;52.398;9.814;2023-10-13T14:44:53;22.90;99.90
30534;DHT22;73248;52.398;9.814;2023-10-13T14:47:25;23.00;99.30
30534;DHT22;73248;52.398;9.814;2023-10-13T14:49:56;23.00;99.40
30534;DHT22;73248;52.398;9.814;2023-10-13T14:52:27;22.90;99.60
30534;DHT22;73248;52.398;9.814;2023-10-13T14:54:57;22.90;99.60
30534;DHT22;73248;52.398;9.814;2023-10-13T14:57:25;22.90;99.40
30534;DHT22;73248;52.398;9.814;2023-10-13T14:59:55;22.90;98.70
30534;DHT22;73248;52.398;9.814;2023-10-13T15:02:24;23.00;98.50
30534;DHT22;73248;52.398;9.814;2023-10-13T15:04:50;22.90;99.00
30534;DHT22;73248;52.398;9.814;2023-10-13T15:07:16;22.90;98.80
30534;DHT22;73248;52.398;9.814;2023-10-13T15:09:43;22.80;98.40
30534;DHT22;73248;52.398;9.814;2023-10-13T15:12:13;22.80;99.30
30534;DHT22;73248;52.398;9.814;2023-10-13T15:14:42;22.80;99.00
30534;DHT22;73248;52.398;9.814;2023-10-13T15:17:10;22.60;99.40
30534;DHT22;73248;52.398;9.814;2023-10-13T15:19:36;22.60;99.50
30534;DHT22;73248;52.398;9.814;2023-10-13T15:22:07;22.60;99.50
30534;DHT22;73248;52.398;9.814;2023-10-13T15:24:42;22.50;99.90
30534;DHT22;73248;52.398;9.814;2023-10-13T15:27:25;22.50;99.50
30534;DHT22;73248;52.398;9.814;2023-10-13T15:29:54;22.50;99.50
30534;DHT22;73248;52.398;9.814;2023-10-13T15:32:20;22.50;99.60
30534;DHT22;73248;52.398;9.814;2023-10-13T15:35:07;22.40;99.70
30534;DHT22;73248;52.398;9.814;2023-10-13T15:37:40;22.50;99.60
30534;DHT22;73248;52.398;9.814;2023-10-13T15:40:07;22.40;99.80
30534;DHT22;73248;52.398;9.814;2023-10-13T15:42:43;22.30;99.90
30534;DHT22;73248;52.398;9.814;2023-10-13T15:45:12;22.30;99.90
30534;DHT22;73248;52.398;9.814;2023-10-13T15:47:47;22.30;99.60
30534;DHT22;73248;52.398;9.814;2023-10-13T15:50:18;22.40;99.70
30534;DHT22;73248;52.398;9.814;2023-10-13T15:52:46;22.40;99.80
30534;DHT22;73248;52.398;9.814;2023-10-13T15:55:16;22.40;99.60
30534;DHT22;73248;52.398;9.814;2023-10-13T15:57:43;22.40;99.60
30534;DHT22;73248;52.398;9.814;2023-10-13T16:00:10;22.30;99.80
30534;DHT22;73248;52.398;9.814;2023-10-13T16:02:56;22.30;99.60
30534;DHT22;73248;52.398;9.814;2023-10-13T16:05:31;22.40;99.60
30534;DHT22;73248;52.398;9.814;2023-10-13T16:08:03;22.30;99.70
30534;DHT22;73248;52.398;9.814;2023-10-13T16:10:34;22.30;99.60
30534;DHT22;73248;52.398;9.814;2023-10-13T16:12:59;22.30;99.60
30534;DHT22;73248;52.398;9.814;2023-10-13T16:15:30;22.30;99.50
30534;DHT22;73248;52.398;9.814;2023-10-13T16:17:55;22.30;99.60
30534;DHT22;73248;52.398;9.814;2023-10-13T16:20:23;22.30;99.70
30534;DHT22;73248;52.398;9.814;2023-10-13T16:22:53;22.20;99.50
30534;DHT22;73248;52.398;9.814;2023-10-13T16:25:21;22.30;99.60
30534;DHT22;73248;52.398;9.814;2023-10-13T16:27:49;22.20;99.50
30534;DHT22;73248;52.398;9.814;2023-10-13T16:30:15;22.20;99.70